sensor_id;sensor_type;location;lat;lon;timestamp;P1;durP1;ratioP1;P2;durP2;ratioP2
35795;SDS011;21916;52.428;13.302;2024-01-10T00:01:39;56.70;;;21.23;;
35795;SDS011;21916;52.428;13.302;2024-01-10T00:04:05;60.03;;;22.17;;
35795;SDS011;21916;52.428;13.302;2024-01-10T00:06:31;51.33;;;21.23;;
35795;SDS011;21916;52.428;13.302;2024-01-10T00:08:56;57.85;;;21.65;;
35795;SDS011;21916;52.428;13.302;2024-01-10T00:11:22;53.80;;;23.98;;
35795;SDS011;21916;52.428;13.302;2024-01-10T00:13:48;59.70;;;23.65;;
35795;SDS011;21916;52.428;13.302;2024-01-10T00:16:14;62.05;;;23.27;;
35795;SDS011;21916;52.428;13.302;2024-01-10T00:18:40;68.20;;;25.75;;
35795;SDS011;21916;52.428;13.302;2024-01-10T00:21:09;63.38;;;23.55;;
35795;SDS011;21916;52.428;13.302;2024-01-10T00:23:36;57.28;;;23.23;;
35795;SDS011;21916;52.428;13.302;2024-01-10T00:26:02;70.43;;;22.98;;
35795;SDS011;21916;52.428;13.302;2024-01-10T00:28:27;57.33;;;24.20;;
35795;SDS011;21916;52.428;13.302;2024-01-10T00:30:53;60.60;;;24.35;;
35795;SDS011;21916;52.428;13.302;2024-01-10T00:33:19;63.28;;;22.83;;
35795;SDS011;21916;52.428;13.302;2024-01-10T00:35:44;70.25;;;24.58;;
35795;SDS011;21916;52.428;13.302;2024-01-10T00:38:10;59.55;;;23.27;;
35795;SDS011;21916;52.428;13.302;2024-01-10T00:40:36;59.15;;;22.45;;
35795;SDS011;21916;52.428;13.302;2024-01-10T00:43:02;63.00;;;24.90;;
35795;SDS011;21916;52.428;13.302;2024-01-10T00:45:27;64.78;;;24.75;;
35795;SDS011;21916;52.428;13.302;2024-01-10T00:47:53;59.92;;;23.25;;
35795;SDS011;21916;52.428;13.302;2024-01-10T00:50:19;62.42;;;24.45;;
35795;SDS011;21916;52.428;13.302;2024-01-10T00:52:45;59.40;;;23.45;;
35795;SDS011;21916;52.428;13.302;2024-01-10T00:55:11;77.40;;;27.42;;
35795;SDS011;21916;52.428;13.302;2024-01-10T00:57:37;75.85;;;26.55;;
35795;SDS011;21916;52.428;13.302;2024-01-10T01:00:07;73.28;;;25.95;;
35795;SDS011;21916;52.428;13.302;2024-01-10T01:02:34;56.35;;;22.15;;
35795;SDS011;21916;52.428;13.302;2024-01-10T01:05:04;71.90;;;25.80;;
35795;SDS011;21916;52.428;13.302;2024-01-10T01:07:32;65.40;;;25.88;;
35795;SDS011;21916;52.428;13.302;2024-01-10T01:09:58;65.93;;;25.60;;
35795;SDS011;21916;52.428;13.302;2024-01-10T01:12:24;74.70;;;24.80;;
35795;SDS011;21916;52.428;13.302;2024-01-10T01:14:50;68.30;;;27.52;;
35795;SDS011;21916;52.428;13.302;2024-01-10T01:17:15;69.47;;;26.48;;
35795;SDS011;21916;52.428;13.302;2024-01-10T01:19:41;59.17;;;24.80;;
35795;SDS011;21916;52.428;13.302;2024-01-10T01:22:07;71.00;;;24.88;;
35795;SDS011;21916;52.428;13.302;2024-01-10T01:24:32;64.55;;;25.58;;
35795;SDS011;21916;52.428;13.302;2024-01-10T01:26:58;71.22;;;26.38;;
35795;SDS011;21916;52.428;13.302;2024-01-10T01:29:24;74.80;;;26.15;;
35795;SDS011;21916;52.428;13.302;2024-01-10T01:31:50;71.75;;;26.42;;
35795;SDS011;21916;52.428;13.302;2024-01-10T01:34:17;71.40;;;25.45;;
35795;SDS011;21916;52.428;13.302;2024-01-10T01:36:43;63.70;;;24.85;;
35795;SDS011;21916;52.428;13.302;2024-01-10T01:39:08;64.13;;;25.70;;
35795;SDS011;21916;52.428;13.302;2024-01-10T01:41:34;74.95;;;27.13;;
35795;SDS011;21916;52.428;13.302;2024-01-10T01:44:00;62.20;;;24.33;;
35795;SDS011;21916;52.428;13.302;2024-01-10T01:46:27;73.97;;;27.52;;
35795;SDS011;21916;52.428;13.302;2024-01-10T01:48:53;70.05;;;23.40;;
35795;SDS011;21916;52.428;13.302;2024-01-10T01:51:18;64.15;;;24.65;;
35795;SDS011;21916;52.428;13.302;2024-01-10T01:53:47;79.05;;;26.33;;
35795;SDS011;21916;52.428;13.302;2024-01-10T01:56:14;72.68;;;26.60;;
35795;SDS011;21916;52.428;13.302;2024-01-10T01:58:41;71.20;;;26.52;;
35795;SDS011;21916;52.428;13.302;2024-01-10T02:01:09;72.47;;;27.02;;
35795;SDS011;21916;52.428;13.302;2024-01-10T02:03:36;68.80;;;26.35;;
35795;SDS011;21916;52.428;13.302;2024-01-10T02:06:02;66.32;;;26.00;;
35795;SDS011;21916;52.428;13.302;2024-01-10T02:08:29;74.70;;;28.60;;
35795;SDS011;21916;52.428;13.302;2024-01-10T02:10:57;65.68;;;24.35;;
35795;SDS011;21916;52.428;13.302;2024-01-10T02:13:23;71.30;;;26.00;;
35795;SDS011;21916;52.428;13.302;2024-01-10T02:15:49;70.20;;;26.70;;
35795;SDS011;21916;52.428;13.302;2024-01-10T02:18:17;65.47;;;26.52;;
35795;SDS011;21916;52.428;13.302;2024-01-10T02:20:43;62.25;;;25.77;;
35795;SDS011;21916;52.428;13.302;2024-01-10T02:23:10;68.97;;;24.73;;
35795;SDS011;21916;52.428;13.302;2024-01-10T02:25:36;59.35;;;25.58;;
35795;SDS011;21916;52.428;13.302;2024-01-10T02:28:02;63.78;;;25.60;;
35795;SDS011;21916;52.428;13.302;2024-01-10T02:30:28;63.05;;;25.75;;
35795;SDS011;21916;52.428;13.302;2024-01-10T02:32:54;71.82;;;25.30;;
35795;SDS011;21916;52.428;13.302;2024-01-10T02:35:19;58.95;;;24.90;;
35795;SDS011;21916;52.428;13.302;2024-01-10T02:37:45;68.50;;;26.35;;
35795;SDS011;21916;52.428;13.302;2024-01-10T02:40:11;68.10;;;25.73;;
35795;SDS011;21916;52.428;13.302;2024-01-10T02:42:37;58.55;;;24.95;;
35795;SDS011;21916;52.428;13.302;2024-01-10T02:45:03;64.40;;;25.92;;
35795;SDS011;21916;52.428;13.302;2024-01-10T02:47:30;67.93;;;27.50;;
35795;SDS011;21916;52.428;13.302;2024-01-10T02:49:55;65.20;;;26.83;;
35795;SDS011;21916;52.428;13.302;2024-01-10T02:52:21;71.43;;;25.02;;
35795;SDS011;21916;52.428;13.302;2024-01-10T02:54:46;62.25;;;24.50;;
35795;SDS011;21916;52.428;13.302;2024-01-10T02:57:12;74.07;;;24.15;;
35795;SDS011;21916;52.428;13.302;2024-01-10T02:59:38;67.70;;;25.40;;
35795;SDS011;21916;52.428;13.302;2024-01-10T03:02:04;73.68;;;27.63;;
35795;SDS011;21916;52.428;13.302;2024-01-10T03:04:30;68.22;;;25.63;;
35795;SDS011;21916;52.428;13.302;2024-01-10T03:06:55;68.35;;;27.33;;
35795;SDS011;21916;52.428;13.302;2024-01-10T03:09:22;64.30;;;24.92;;
35795;SDS011;21916;52.428;13.302;2024-01-10T03:11:48;74.30;;;27.80;;
35795;SDS011;21916;52.428;13.302;2024-01-10T03:14:16;80.68;;;27.92;;
35795;SDS011;21916;52.428;13.302;2024-01-10T03:16:42;68.47;;;25.83;;
35795;SDS011;21916;52.428;13.302;2024-01-10T03:19:08;68.43;;;26.77;;
35795;SDS011;21916;52.428;13.302;2024-01-10T03:21:34;69.93;;;26.23;;
35795;SDS011;21916;52.428;13.302;2024-01-10T03:24:00;62.63;;;24.92;;
35795;SDS011;21916;52.428;13.302;2024-01-10T03:26:27;79.85;;;27.85;;
35795;SDS011;21916;52.428;13.302;2024-01-10T03:28:55;66.55;;;25.95;;
35795;SDS011;21916;52.428;13.302;2024-01-10T03:31:21;77.20;;;25.38;;
35795;SDS011;21916;52.428;13.302;2024-01-10T03:33:47;67.30;;;24.88;;
35795;SDS011;21916;52.428;13.302;2024-01-10T03:36:14;74.93;;;26.83;;
35795;SDS011;21916;52.428;13.302;2024-01-10T03:38:41;63.53;;;24.73;;
35795;SDS011;21916;52.428;13.302;2024-01-10T03:41:07;74.80;;;27.73;;
35795;SDS011;21916;52.428;13.302;2024-01-10T03:43:37;65.35;;;26.90;;
35795;SDS011;21916;52.428;13.302;2024-01-10T03:46:03;73.57;;;26.00;;
35795;SDS011;21916;52.428;13.302;2024-01-10T03:48:28;76.20;;;29.08;;
35795;SDS011;21916;52.428;13.302;2024-01-10T03:50:54;71.35;;;26.55;;
35795;SDS011;21916;52.428;13.302;2024-01-10T03:53:20;68.25;;;25.88;;
35795;SDS011;21916;52.428;13.302;2024-01-10T03:55:45;67.10;;;27.65;;
35795;SDS011;21916;52.428;13.302;2024-01-10T03:58:11;55.97;;;25.25;;
35795;SDS011;21916;52.428;13.302;2024-01-10T04:00:37;74.82;;;27.38;;
35795;SDS011;21916;52.428;13.302;2024-01-10T04:03:03;64.90;;;24.83;;
35795;SDS011;21916;52.428;13.302;2024-01-10T04:05:30;73.57;;;26.98;;
35795;SDS011;21916;52.428;13.302;2024-01-10T04:07:55;72.55;;;27.40;;
35795;SDS011;21916;52.428;13.302;2024-01-10T04:10:22;65.90;;;28.25;;
35795;SDS011;21916;52.428;13.302;2024-01-10T04:12:48;78.15;;;27.23;;
35795;SDS011;21916;52.428;13.302;2024-01-10T04:15:14;64.00;;;27.38;;
35795;SDS011;21916;52.428;13.302;2024-01-10T04:17:40;67.32;;;26.50;;
35795;SDS011;21916;52.428;13.302;2024-01-10T04:20:06;74.68;;;26.88;;
35795;SDS011;21916;52.428;13.302;2024-01-10T04:22:32;76.28;;;28.98;;
35795;SDS011;21916;52.428;13.302;2024-01-10T04:24:58;74.32;;;26.15;;
35795;SDS011;21916;52.428;13.302;2024-01-10T04:27:25;73.00;;;27.17;;
35795;SDS011;21916;52.428;13.302;2024-01-10T04:29:51;75.35;;;27.75;;
35795;SDS011;21916;52.428;13.302;2024-01-10T04:32:17;70.00;;;27.13;;
35795;SDS011;21916;52.428;13.302;2024-01-10T04:34:46;75.40;;;26.08;;
35795;SDS011;21916;52.428;13.302;2024-01-10T04:37:11;88.55;;;29.65;;
35795;SDS011;21916;52.428;13.302;2024-01-10T04:39:37;73.72;;;27.08;;
35795;SDS011;21916;52.428;13.302;2024-01-10T04:42:03;64.20;;;25.23;;
35795;SDS011;21916;52.428;13.302;2024-01-10T04:44:29;66.90;;;26.25;;
35795;SDS011;21916;52.428;13.302;2024-01-10T04:46:55;84.85;;;30.13;;
35795;SDS011;21916;52.428;13.302;2024-01-10T04:49:20;67.47;;;25.27;;
35795;SDS011;21916;52.428;13.302;2024-01-10T04:51:46;82.15;;;28.67;;
35795;SDS011;21916;52.428;13.302;2024-01-10T04:54:13;76.50;;;26.83;;
35795;SDS011;21916;52.428;13.302;2024-01-10T04:56:38;68.82;;;26.15;;
35795;SDS011;21916;52.428;13.302;2024-01-10T04:59:04;73.57;;;28.27;;
35795;SDS011;21916;52.428;13.302;2024-01-10T05:01:31;72.10;;;26.45;;
35795;SDS011;21916;52.428;13.302;2024-01-10T05:03:58;81.63;;;28.83;;
35795;SDS011;21916;52.428;13.302;2024-01-10T05:06:24;80.63;;;27.98;;
35795;SDS011;21916;52.428;13.302;2024-01-10T05:08:49;64.38;;;28.67;;
35795;SDS011;21916;52.428;13.302;2024-01-10T05:11:15;72.65;;;29.40;;
35795;SDS011;21916;52.428;13.302;2024-01-10T05:13:42;79.30;;;27.65;;
35795;SDS011;21916;52.428;13.302;2024-01-10T05:16:08;74.13;;;26.40;;
35795;SDS011;21916;52.428;13.302;2024-01-10T05:18:33;76.93;;;28.30;;
35795;SDS011;21916;52.428;13.302;2024-01-10T05:20:59;69.50;;;26.27;;
35795;SDS011;21916;52.428;13.302;2024-01-10T05:23:25;73.28;;;27.55;;
35795;SDS011;21916;52.428;13.302;2024-01-10T05:25:53;76.80;;;26.30;;
35795;SDS011;21916;52.428;13.302;2024-01-10T05:28:19;76.97;;;27.70;;
35795;SDS011;21916;52.428;13.302;2024-01-10T05:30:45;71.47;;;27.63;;
35795;SDS011;21916;52.428;13.302;2024-01-10T05:33:10;73.38;;;28.40;;
35795;SDS011;21916;52.428;13.302;2024-01-10T05:35:36;78.25;;;27.73;;
35795;SDS011;21916;52.428;13.302;2024-01-10T05:38:05;74.22;;;27.35;;
35795;SDS011;21916;52.428;13.302;2024-01-10T05:40:31;68.60;;;27.02;;
35795;SDS011;21916;52.428;13.302;2024-01-10T05:42:57;69.82;;;26.80;;
35795;SDS011;21916;52.428;13.302;2024-01-10T05:45:27;62.40;;;26.30;;
35795;SDS011;21916;52.428;13.302;2024-01-10T05:47:53;70.78;;;25.92;;
35795;SDS011;21916;52.428;13.302;2024-01-10T05:50:20;68.93;;;27.45;;
35795;SDS011;21916;52.428;13.302;2024-01-10T05:52:46;74.35;;;29.30;;
35795;SDS011;21916;52.428;13.302;2024-01-10T05:55:14;74.40;;;28.20;;
35795;SDS011;21916;52.428;13.302;2024-01-10T05:57:41;73.68;;;27.80;;
35795;SDS011;21916;52.428;13.302;2024-01-10T06:00:07;74.55;;;27.27;;
35795;SDS011;21916;52.428;13.302;2024-01-10T06:02:37;68.80;;;27.02;;
35795;SDS011;21916;52.428;13.302;2024-01-10T06:05:07;69.03;;;26.83;;
35795;SDS011;21916;52.428;13.302;2024-01-10T06:07:34;72.97;;;26.05;;
35795;SDS011;21916;52.428;13.302;2024-01-10T06:10:00;70.72;;;26.02;;
35795;SDS011;21916;52.428;13.302;2024-01-10T06:12:27;59.03;;;25.67;;
35795;SDS011;21916;52.428;13.302;2024-01-10T06:14:53;82.80;;;27.63;;
35795;SDS011;21916;52.428;13.302;2024-01-10T06:17:19;66.50;;;26.65;;
35795;SDS011;21916;52.428;13.302;2024-01-10T06:19:45;68.50;;;28.40;;
35795;SDS011;21916;52.428;13.302;2024-01-10T06:22:10;76.95;;;27.45;;
35795;SDS011;21916;52.428;13.302;2024-01-10T06:24:36;76.50;;;29.27;;
35795;SDS011;21916;52.428;13.302;2024-01-10T06:27:03;86.68;;;30.70;;
35795;SDS011;21916;52.428;13.302;2024-01-10T06:29:31;71.47;;;27.33;;
35795;SDS011;21916;52.428;13.302;2024-01-10T06:31:57;87.40;;;29.42;;
35795;SDS011;21916;52.428;13.302;2024-01-10T06:34:23;76.47;;;30.30;;
35795;SDS011;21916;52.428;13.302;2024-01-10T06:36:49;78.25;;;26.63;;
35795;SDS011;21916;52.428;13.302;2024-01-10T06:39:15;74.18;;;28.13;;
35795;SDS011;21916;52.428;13.302;2024-01-10T06:41:42;66.43;;;27.23;;
35795;SDS011;21916;52.428;13.302;2024-01-10T06:44:08;88.00;;;28.98;;
35795;SDS011;21916;52.428;13.302;2024-01-10T06:46:33;86.88;;;30.30;;
35795;SDS011;21916;52.428;13.302;2024-01-10T06:48:59;67.50;;;25.55;;
35795;SDS011;21916;52.428;13.302;2024-01-10T06:51:25;76.88;;;27.15;;
35795;SDS011;21916;52.428;13.302;2024-01-10T06:53:52;69.78;;;28.98;;
35795;SDS011;21916;52.428;13.302;2024-01-10T06:56:18;69.82;;;28.02;;
35795;SDS011;21916;52.428;13.302;2024-01-10T06:58:45;79.30;;;29.33;;
35795;SDS011;21916;52.428;13.302;2024-01-10T07:01:11;73.60;;;27.73;;
35795;SDS011;21916;52.428;13.302;2024-01-10T07:03:39;74.95;;;29.70;;
35795;SDS011;21916;52.428;13.302;2024-01-10T07:06:05;80.30;;;28.13;;
35795;SDS011;21916;52.428;13.302;2024-01-10T07:08:32;90.93;;;28.52;;
35795;SDS011;21916;52.428;13.302;2024-01-10T07:10:59;71.78;;;27.25;;
35795;SDS011;21916;52.428;13.302;2024-01-10T07:13:25;72.60;;;28.38;;
35795;SDS011;21916;52.428;13.302;2024-01-10T07:15:50;83.22;;;31.02;;
35795;SDS011;21916;52.428;13.302;2024-01-10T07:18:17;76.72;;;29.23;;
35795;SDS011;21916;52.428;13.302;2024-01-10T07:20:43;63.45;;;26.42;;
35795;SDS011;21916;52.428;13.302;2024-01-10T07:23:09;85.35;;;30.17;;
35795;SDS011;21916;52.428;13.302;2024-01-10T07:25:35;79.65;;;29.45;;
35795;SDS011;21916;52.428;13.302;2024-01-10T07:28:02;71.65;;;28.80;;
35795;SDS011;21916;52.428;13.302;2024-01-10T07:30:29;78.85;;;29.65;;
35795;SDS011;21916;52.428;13.302;2024-01-10T07:32:58;73.03;;;30.48;;
35795;SDS011;21916;52.428;13.302;2024-01-10T07:35:23;73.65;;;29.83;;
35795;SDS011;21916;52.428;13.302;2024-01-10T07:37:49;73.82;;;28.48;;
35795;SDS011;21916;52.428;13.302;2024-01-10T07:40:15;80.75;;;29.95;;
35795;SDS011;21916;52.428;13.302;2024-01-10T07:42:42;95.50;;;29.65;;
35795;SDS011;21916;52.428;13.302;2024-01-10T07:45:08;83.95;;;30.48;;
35795;SDS011;21916;52.428;13.302;2024-01-10T07:47:34;72.13;;;26.58;;
35795;SDS011;21916;52.428;13.302;2024-01-10T07:50:06;74.72;;;29.33;;
35795;SDS011;21916;52.428;13.302;2024-01-10T07:52:32;81.95;;;31.40;;
35795;SDS011;21916;52.428;13.302;2024-01-10T07:54:58;76.03;;;28.70;;
35795;SDS011;21916;52.428;13.302;2024-01-10T07:57:24;86.00;;;32.08;;
35795;SDS011;21916;52.428;13.302;2024-01-10T07:59:49;87.78;;;30.95;;
35795;SDS011;21916;52.428;13.302;2024-01-10T08:02:15;85.57;;;30.48;;
35795;SDS011;21916;52.428;13.302;2024-01-10T08:04:41;70.95;;;29.35;;
35795;SDS011;21916;52.428;13.302;2024-01-10T08:07:07;79.88;;;30.70;;
35795;SDS011;21916;52.428;13.302;2024-01-10T08:09:33;78.32;;;30.08;;
35795;SDS011;21916;52.428;13.302;2024-01-10T08:11:59;83.03;;;28.67;;
35795;SDS011;21916;52.428;13.302;2024-01-10T08:14:25;76.00;;;28.77;;
35795;SDS011;21916;52.428;13.302;2024-01-10T08:16:52;79.07;;;29.02;;
35795;SDS011;21916;52.428;13.302;2024-01-10T08:19:26;91.78;;;30.58;;
35795;SDS011;21916;52.428;13.302;2024-01-10T08:21:52;84.78;;;34.20;;
35795;SDS011;21916;52.428;13.302;2024-01-10T08:24:19;90.95;;;31.08;;
35795;SDS011;21916;52.428;13.302;2024-01-10T08:26:46;76.93;;;29.55;;
35795;SDS011;21916;52.428;13.302;2024-01-10T08:29:17;76.72;;;30.33;;
35795;SDS011;21916;52.428;13.302;2024-01-10T08:31:44;81.57;;;28.88;;
35795;SDS011;21916;52.428;13.302;2024-01-10T08:34:10;75.75;;;31.50;;
35795;SDS011;21916;52.428;13.302;2024-01-10T08:36:35;71.60;;;29.80;;
35795;SDS011;21916;52.428;13.302;2024-01-10T08:39:02;70.38;;;31.63;;
35795;SDS011;21916;52.428;13.302;2024-01-10T08:41:29;66.07;;;26.92;;
35795;SDS011;21916;52.428;13.302;2024-01-10T08:43:55;80.05;;;32.50;;
35795;SDS011;21916;52.428;13.302;2024-01-10T08:46:21;73.78;;;31.17;;
35795;SDS011;21916;52.428;13.302;2024-01-10T08:48:47;75.38;;;28.70;;
35795;SDS011;21916;52.428;13.302;2024-01-10T08:51:13;77.82;;;29.35;;
35795;SDS011;21916;52.428;13.302;2024-01-10T08:53:42;91.50;;;33.58;;
35795;SDS011;21916;52.428;13.302;2024-01-10T08:56:09;91.25;;;32.38;;
35795;SDS011;21916;52.428;13.302;2024-01-10T08:58:35;83.70;;;32.55;;
35795;SDS011;21916;52.428;13.302;2024-01-10T09:01:02;78.25;;;30.20;;
35795;SDS011;21916;52.428;13.302;2024-01-10T09:03:29;81.25;;;33.65;;
35795;SDS011;21916;52.428;13.302;2024-01-10T09:05:55;69.03;;;30.52;;
35795;SDS011;21916;52.428;13.302;2024-01-10T09:08:21;75.80;;;31.63;;
35795;SDS011;21916;52.428;13.302;2024-01-10T09:10:47;74.88;;;30.45;;
35795;SDS011;21916;52.428;13.302;2024-01-10T09:13:14;72.03;;;31.52;;
35795;SDS011;21916;52.428;13.302;2024-01-10T09:15:40;75.95;;;30.05;;
35795;SDS011;21916;52.428;13.302;2024-01-10T09:18:06;75.30;;;31.08;;
35795;SDS011;21916;52.428;13.302;2024-01-10T09:20:31;79.20;;;32.08;;
35795;SDS011;21916;52.428;13.302;2024-01-10T09:22:57;79.07;;;31.40;;
35795;SDS011;21916;52.428;13.302;2024-01-10T09:25:25;74.75;;;30.33;;
35795;SDS011;21916;52.428;13.302;2024-01-10T09:27:51;75.65;;;30.63;;
35795;SDS011;21916;52.428;13.302;2024-01-10T09:30:17;71.50;;;28.90;;
35795;SDS011;21916;52.428;13.302;2024-01-10T09:32:43;75.72;;;33.05;;
35795;SDS011;21916;52.428;13.302;2024-01-10T09:35:10;82.28;;;32.40;;
35795;SDS011;21916;52.428;13.302;2024-01-10T09:37:37;78.03;;;28.35;;
35795;SDS011;21916;52.428;13.302;2024-01-10T09:40:03;70.93;;;27.77;;
35795;SDS011;21916;52.428;13.302;2024-01-10T09:42:29;73.18;;;29.58;;
35795;SDS011;21916;52.428;13.302;2024-01-10T09:44:57;68.15;;;28.75;;
35795;SDS011;21916;52.428;13.302;2024-01-10T09:47:25;74.00;;;28.30;;
35795;SDS011;21916;52.428;13.302;2024-01-10T09:49:51;70.38;;;29.05;;
35795;SDS011;21916;52.428;13.302;2024-01-10T09:52:23;66.03;;;27.65;;
35795;SDS011;21916;52.428;13.302;2024-01-10T09:54:53;66.15;;;26.90;;
35795;SDS011;21916;52.428;13.302;2024-01-10T09:57:21;71.13;;;25.67;;
35795;SDS011;21916;52.428;13.302;2024-01-10T09:59:52;68.43;;;27.95;;
35795;SDS011;21916;52.428;13.302;2024-01-10T10:02:19;71.05;;;29.33;;
35795;SDS011;21916;52.428;13.302;2024-01-10T10:05:04;63.85;;;27.20;;
35795;SDS011;21916;52.428;13.302;2024-01-10T10:10:31;58.00;;;25.50;;
35795;SDS011;21916;52.428;13.302;2024-01-10T10:12:57;65.65;;;26.67;;
35795;SDS011;21916;52.428;13.302;2024-01-10T10:15:23;67.88;;;27.92;;
35795;SDS011;21916;52.428;13.302;2024-01-10T10:17:53;62.78;;;27.75;;
35795;SDS011;21916;52.428;13.302;2024-01-10T10:20:22;60.45;;;26.25;;
35795;SDS011;21916;52.428;13.302;2024-01-10T10:22:59;62.53;;;28.10;;
35795;SDS011;21916;52.428;13.302;2024-01-10T10:25:33;69.63;;;28.42;;
35795;SDS011;21916;52.428;13.302;2024-01-10T10:28:01;62.25;;;28.08;;
35795;SDS011;21916;52.428;13.302;2024-01-10T10:30:27;57.78;;;25.83;;
35795;SDS011;21916;52.428;13.302;2024-01-10T10:32:55;51.83;;;26.00;;
35795;SDS011;21916;52.428;13.302;2024-01-10T10:35:21;51.22;;;24.52;;
35795;SDS011;21916;52.428;13.302;2024-01-10T10:37:48;56.70;;;27.20;;
35795;SDS011;21916;52.428;13.302;2024-01-10T10:40:15;51.17;;;26.30;;
35795;SDS011;21916;52.428;13.302;2024-01-10T10:42:43;56.30;;;26.35;;
35795;SDS011;21916;52.428;13.302;2024-01-10T10:45:16;52.97;;;25.80;;
35795;SDS011;21916;52.428;13.302;2024-01-10T10:47:43;50.38;;;26.05;;
35795;SDS011;21916;52.428;13.302;2024-01-10T10:50:15;60.47;;;28.98;;
35795;SDS011;21916;52.428;13.302;2024-01-10T10:52:46;57.63;;;28.20;;
35795;SDS011;21916;52.428;13.302;2024-01-10T10:55:14;49.25;;;28.02;;
35795;SDS011;21916;52.428;13.302;2024-01-10T10:57:43;56.45;;;27.85;;
35795;SDS011;21916;52.428;13.302;2024-01-10T11:00:11;49.88;;;26.90;;
35795;SDS011;21916;52.428;13.302;2024-01-10T11:02:40;53.00;;;27.15;;
35795;SDS011;21916;52.428;13.302;2024-01-10T11:05:07;48.97;;;26.45;;
35795;SDS011;21916;52.428;13.302;2024-01-10T11:07:35;56.58;;;29.17;;
35795;SDS011;21916;52.428;13.302;2024-01-10T11:10:02;45.15;;;27.25;;
35795;SDS011;21916;52.428;13.302;2024-01-10T11:12:44;54.45;;;26.60;;
35795;SDS011;21916;52.428;13.302;2024-01-10T11:15:54;49.72;;;27.27;;
35795;SDS011;21916;52.428;13.302;2024-01-10T11:22:04;51.72;;;28.00;;
35795;SDS011;21916;52.428;13.302;2024-01-10T11:24:51;52.08;;;27.42;;
35795;SDS011;21916;52.428;13.302;2024-01-10T11:27:17;46.88;;;26.67;;
35795;SDS011;21916;52.428;13.302;2024-01-10T11:29:45;51.75;;;27.13;;
35795;SDS011;21916;52.428;13.302;2024-01-10T11:32:14;52.58;;;28.98;;
35795;SDS011;21916;52.428;13.302;2024-01-10T11:37:19;47.72;;;26.38;;
35795;SDS011;21916;52.428;13.302;2024-01-10T11:39:44;52.30;;;26.33;;
35795;SDS011;21916;52.428;13.302;2024-01-10T11:42:10;49.38;;;25.95;;
35795;SDS011;21916;52.428;13.302;2024-01-10T11:44:47;46.40;;;26.38;;
35795;SDS011;21916;52.428;13.302;2024-01-10T11:47:15;50.00;;;27.83;;
35795;SDS011;21916;52.428;13.302;2024-01-10T11:49:41;45.30;;;25.25;;
35795;SDS011;21916;52.428;13.302;2024-01-10T11:52:20;46.30;;;24.98;;
35795;SDS011;21916;52.428;13.302;2024-01-10T11:54:47;51.35;;;24.88;;
35795;SDS011;21916;52.428;13.302;2024-01-10T11:57:20;44.85;;;23.33;;
35795;SDS011;21916;52.428;13.302;2024-01-10T11:59:47;44.15;;;25.08;;
35795;SDS011;21916;52.428;13.302;2024-01-10T12:02:20;46.22;;;25.33;;
35795;SDS011;21916;52.428;13.302;2024-01-10T12:04:47;42.72;;;24.10;;
35795;SDS011;21916;52.428;13.302;2024-01-10T12:07:13;47.55;;;24.67;;
35795;SDS011;21916;52.428;13.302;2024-01-10T12:09:40;46.75;;;25.42;;
35795;SDS011;21916;52.428;13.302;2024-01-10T12:12:07;50.03;;;25.08;;
35795;SDS011;21916;52.428;13.302;2024-01-10T12:14:33;42.40;;;24.75;;
35795;SDS011;21916;52.428;13.302;2024-01-10T12:16:59;47.95;;;24.67;;
35795;SDS011;21916;52.428;13.302;2024-01-10T12:19:25;44.47;;;22.85;;
35795;SDS011;21916;52.428;13.302;2024-01-10T12:21:52;40.38;;;23.27;;
35795;SDS011;21916;52.428;13.302;2024-01-10T12:24:18;49.65;;;27.17;;
35795;SDS011;21916;52.428;13.302;2024-01-10T12:26:45;45.15;;;24.73;;
35795;SDS011;21916;52.428;13.302;2024-01-10T12:29:12;52.00;;;25.50;;
35795;SDS011;21916;52.428;13.302;2024-01-10T12:31:37;38.10;;;23.35;;
35795;SDS011;21916;52.428;13.302;2024-01-10T12:34:04;39.60;;;23.85;;
35795;SDS011;21916;52.428;13.302;2024-01-10T12:36:32;43.03;;;22.30;;
35795;SDS011;21916;52.428;13.302;2024-01-10T12:38:58;41.47;;;22.85;;
35795;SDS011;21916;52.428;13.302;2024-01-10T12:41:23;38.20;;;22.55;;
35795;SDS011;21916;52.428;13.302;2024-01-10T12:43:49;42.40;;;21.88;;
35795;SDS011;21916;52.428;13.302;2024-01-10T12:46:17;44.20;;;24.23;;
35795;SDS011;21916;52.428;13.302;2024-01-10T12:48:43;37.65;;;21.38;;
35795;SDS011;21916;52.428;13.302;2024-01-10T12:51:09;39.47;;;21.10;;
35795;SDS011;21916;52.428;13.302;2024-01-10T12:53:37;33.95;;;20.17;;
35795;SDS011;21916;52.428;13.302;2024-01-10T12:56:07;37.80;;;21.15;;
35795;SDS011;21916;52.428;13.302;2024-01-10T12:58:34;39.58;;;21.20;;
35795;SDS011;21916;52.428;13.302;2024-01-10T13:01:02;41.63;;;22.08;;
35795;SDS011;21916;52.428;13.302;2024-01-10T13:03:31;38.63;;;22.08;;
35795;SDS011;21916;52.428;13.302;2024-01-10T13:05:57;41.05;;;21.40;;
35795;SDS011;21916;52.428;13.302;2024-01-10T13:08:23;41.30;;;21.10;;
35795;SDS011;21916;52.428;13.302;2024-01-10T13:10:49;38.10;;;21.30;;
35795;SDS011;21916;52.428;13.302;2024-01-10T13:13:15;33.38;;;20.52;;
35795;SDS011;21916;52.428;13.302;2024-01-10T13:15:43;42.05;;;21.25;;
35795;SDS011;21916;52.428;13.302;2024-01-10T13:18:10;37.78;;;19.98;;
35795;SDS011;21916;52.428;13.302;2024-01-10T13:20:36;34.53;;;20.33;;
35795;SDS011;21916;52.428;13.302;2024-01-10T13:23:03;37.58;;;21.27;;
35795;SDS011;21916;52.428;13.302;2024-01-10T13:25:29;37.30;;;19.60;;
35795;SDS011;21916;52.428;13.302;2024-01-10T13:27:55;33.13;;;19.85;;
35795;SDS011;21916;52.428;13.302;2024-01-10T13:30:22;35.08;;;20.63;;
35795;SDS011;21916;52.428;13.302;2024-01-10T13:32:48;41.80;;;19.88;;
35795;SDS011;21916;52.428;13.302;2024-01-10T13:35:14;37.65;;;20.92;;
35795;SDS011;21916;52.428;13.302;2024-01-10T13:37:44;37.42;;;20.25;;
35795;SDS011;21916;52.428;13.302;2024-01-10T13:40:11;37.67;;;19.13;;
35795;SDS011;21916;52.428;13.302;2024-01-10T13:42:40;33.97;;;19.33;;
35795;SDS011;21916;52.428;13.302;2024-01-10T13:45:07;34.88;;;19.65;;
35795;SDS011;21916;52.428;13.302;2024-01-10T13:47:36;34.58;;;19.98;;
35795;SDS011;21916;52.428;13.302;2024-01-10T13:50:03;31.13;;;19.23;;
35795;SDS011;21916;52.428;13.302;2024-01-10T13:52:33;37.05;;;19.90;;
35795;SDS011;21916;52.428;13.302;2024-01-10T13:54:59;35.50;;;20.88;;
35795;SDS011;21916;52.428;13.302;2024-01-10T13:57:25;32.47;;;17.88;;
35795;SDS011;21916;52.428;13.302;2024-01-10T13:59:51;35.42;;;19.33;;
35795;SDS011;21916;52.428;13.302;2024-01-10T14:02:21;32.20;;;18.48;;
35795;SDS011;21916;52.428;13.302;2024-01-10T14:04:47;37.63;;;20.30;;
35795;SDS011;21916;52.428;13.302;2024-01-10T14:07:13;35.60;;;18.98;;
35795;SDS011;21916;52.428;13.302;2024-01-10T14:09:39;42.95;;;18.60;;
35795;SDS011;21916;52.428;13.302;2024-01-10T14:12:05;37.38;;;17.95;;
35795;SDS011;21916;52.428;13.302;2024-01-10T14:14:31;36.13;;;17.60;;
35795;SDS011;21916;52.428;13.302;2024-01-10T14:16:57;32.80;;;17.25;;